Time,TemperatureF,DewpointF,PressureIn,WindDirection,WindDirectionDegrees,WindSpeedMPH,WindSpeedGustMPH,Humidity,HourlyPrecipIn,Conditions,Clouds,dailyrainin,SoftwareType,DateUTC
2013-02-27 00:04:00,66.2,64.4,29.69,ENE,67,2.2,-999.0,94,-99.99,,,0.00,Acu-Link.com,2013-02-27 05:04:00,
2013-02-27 00:19:00,65.7,63.6,29.69,SW,225,2.7,-999.0,93,-99.99,,,0.00,Acu-Link.com,2013-02-27 05:19:00,
2013-02-27 00:34:00,65.1,63.0,29.70,SE,135,1.7,-999.0,93,-99.99,,,0.00,Acu-Link.com,2013-02-27 05:34:00,
2013-02-27 00:49:00,64.4,62.3,29.69,NW,315,2.2,-999.0,93,-99.99,,,0.00,Acu-Link.com,2013-02-27 05:49:00,
2013-02-27 01:05:00,64.0,62.2,29.70,SSW,202,1.7,-999.0,94,-99.99,,,0.00,Acu-Link.com,2013-02-27 06:05:00,
2013-02-27 01:20:00,63.7,62.2,29.70,North,0,3.2,-999.0,95,-99.99,,,0.00,Acu-Link.com,2013-02-27 06:20:00,
2013-02-27 01:35:00,63.1,61.6,29.70,NE,45,1.1,-999.0,95,-99.99,,,0.00,Acu-Link.com,2013-02-27 06:35:00,
2013-02-27 01:51:00,62.6,61.4,29.70,WNW,292,1.7,-999.0,96,-99.99,,,0.00,Acu-Link.com,2013-02-27 06:51:00,
2013-02-27 02:06:00,62.1,60.9,29.71,NW,315,1.1,-999.0,96,-99.99,,,0.00,Acu-Link.com,2013-02-27 07:06:00,
2013-02-27 02:21:00,61.9,61.0,29.71,NW,315,0.0,-999.0,97,-99.99,,,0.00,Acu-Link.com,2013-02-27 07:21:00,
2013-02-27 02:37:00,61.3,60.4,29.70,SSW,202,0.0,-999.0,97,-99.99,,,0.00,Acu-Link.com,2013-02-27 07:37:00,
2013-02-27 02:52:00,60.8,60.2,29.70,WNW,292,0.0,-999.0,98,-99.99,,,0.00,Acu-Link.com,2013-02-27 07:52:00,
2013-02-27 03:07:00,60.3,59.7,29.69,West,270,2.2,-999.0,98,-99.99,,,0.00,Acu-Link.com,2013-02-27 08:07:00,
2013-02-27 03:22:00,60.6,60.0,29.69,ESE,112,0.0,-999.0,98,-99.99,,,0.00,Acu-Link.com,2013-02-27 08:22:00,
2013-02-27 03:38:00,60.6,60.0,29.68,WSW,247,0.0,-999.0,98,-99.99,,,0.00,Acu-Link.com,2013-02-27 08:38:00,
2013-02-27 03:53:00,60.6,60.0,29.70,West,270,1.7,-999.0,98,-99.99,,,0.00,Acu-Link.com,2013-02-27 08:53:00,
2013-02-27 04:18:00,60.8,60.2,29.70,WSW,247,1.1,-999.0,98,-99.99,,,0.00,Acu-Link.com,2013-02-27 09:18:00,
2013-02-27 04:33:00,60.8,60.2,29.70,WSW,247,2.2,-999.0,98,-99.99,,,0.00,Acu-Link.com,2013-02-27 09:33:00,
2013-02-27 04:48:00,61.2,60.6,29.70,NW,315,1.7,-999.0,98,-99.99,,,0.00,Acu-Link.com,2013-02-27 09:48:00,
2013-02-27 05:03:00,61.2,60.3,29.71,WSW,247,1.7,-999.0,97,-99.99,,,0.00,Acu-Link.com,2013-02-27 10:03:00,
2013-02-27 05:19:00,61.0,60.1,29.72,SSE,157,1.7,-999.0,97,-99.99,,,0.00,Acu-Link.com,2013-02-27 10:19:00,
2013-02-27 05:34:00,60.8,59.9,29.72,NNW,337,1.7,-999.0,97,-99.99,,,0.00,Acu-Link.com,2013-02-27 10:34:00,
2013-02-27 05:49:00,60.4,59.5,29.73,SW,225,0.0,-999.0,97,-99.99,,,0.00,Acu-Link.com,2013-02-27 10:49:00,
2013-02-27 06:04:00,59.2,58.3,29.73,SE,135,0.0,-999.0,97,-99.99,,,0.00,Acu-Link.com,2013-02-27 11:04:00,
2013-02-27 06:20:00,58.5,57.7,29.74,WSW,247,0.0,-999.0,97,-99.99,,,0.00,Acu-Link.com,2013-02-27 11:20:00,
2013-02-27 06:35:00,57.4,56.3,29.73,ESE,112,0.0,-999.0,96,-99.99,,,0.00,Acu-Link.com,2013-02-27 11:35:00,
2013-02-27 06:50:00,57.4,57.1,29.74,West,270,0.0,-999.0,99,-99.99,,,0.00,Acu-Link.com,2013-02-27 11:50:00,
2013-02-27 07:05:00,57.4,57.1,29.74,South,180,0.0,-999.0,99,-99.99,,,0.00,Acu-Link.com,2013-02-27 12:05:00,
2013-02-27 07:20:00,57.2,56.9,29.76,South,180,0.0,-999.0,99,-99.99,,,0.00,Acu-Link.com,2013-02-27 12:20:00,
2013-02-27 07:36:00,59.4,59.1,29.75,SSW,202,0.0,-999.0,99,-99.99,,,0.00,Acu-Link.com,2013-02-27 12:36:00,
2013-02-27 07:51:00,61.5,61.2,29.76,SSE,157,0.0,-999.0,99,-99.99,,,0.00,Acu-Link.com,2013-02-27 12:51:00,
2013-02-27 08:06:00,63.1,62.2,29.77,WNW,292,1.1,-999.0,97,-99.99,,,0.00,Acu-Link.com,2013-02-27 13:06:00,
2013-02-27 08:22:00,64.0,61.3,29.77,West,270,0.0,-999.0,91,-99.99,,,0.00,Acu-Link.com,2013-02-27 13:22:00,
2013-02-27 08:37:00,65.3,62.3,29.78,SE,135,0.0,-999.0,90,-99.99,,,0.00,Acu-Link.com,2013-02-27 13:37:00,
2013-02-27 08:52:00,65.8,60.8,29.78,WNW,292,2.2,-999.0,84,-99.99,,,0.00,Acu-Link.com,2013-02-27 13:52:00,
2013-02-27 09:07:00,67.3,61.6,29.80,East,90,2.2,-999.0,82,-99.99,,,0.00,Acu-Link.com,2013-02-27 14:07:00,
2013-02-27 09:22:00,67.3,60.6,29.79,West,270,1.7,-999.0,79,-99.99,,,0.00,Acu-Link.com,2013-02-27 14:22:00,
2013-02-27 09:38:00,68.7,61.2,29.79,NW,315,1.1,-999.0,77,-99.99,,,0.00,Acu-Link.com,2013-02-27 14:38:00,
2013-02-27 09:53:00,68.9,60.6,29.79,West,270,2.7,-999.0,75,-99.99,,,0.00,Acu-Link.com,2013-02-27 14:53:00,
2013-02-27 10:08:00,68.9,60.3,29.81,West,270,5.3,-999.0,74,-99.99,,,0.00,Acu-Link.com,2013-02-27 15:08:00,
2013-02-27 10:24:00,70.7,60.8,29.81,West,270,1.7,-999.0,71,-99.99,,,0.00,Acu-Link.com,2013-02-27 15:24:00,
2013-02-27 10:39:00,71.6,60.0,29.81,WSW,247,4.2,-999.0,67,-99.99,,,0.00,Acu-Link.com,2013-02-27 15:39:00,
2013-02-27 10:54:00,72.3,59.9,29.79,SE,135,1.7,-999.0,65,-99.99,,,0.00,Acu-Link.com,2013-02-27 15:54:00,
2013-02-27 11:10:00,73.4,59.1,29.80,WSW,247,3.2,-999.0,61,-99.99,,,0.00,Acu-Link.com,2013-02-27 16:10:00,
2013-02-27 11:25:00,74.7,60.3,29.79,NE,45,6.8,-999.0,61,-99.99,,,0.00,Acu-Link.com,2013-02-27 16:25:00,
2013-02-27 11:40:00,78.4,61.4,29.79,SW,225,5.3,-999.0,56,-99.99,,,0.00,Acu-Link.com,2013-02-27 16:40:00,
2013-02-27 11:56:00,76.1,59.7,29.77,WNW,292,2.2,-999.0,57,-99.99,,,0.00,Acu-Link.com,2013-02-27 16:56:00,
2013-02-27 12:11:00,75.0,58.2,29.78,SSW,202,2.7,-999.0,56,-99.99,,,0.00,Acu-Link.com,2013-02-27 17:11:00,
2013-02-27 12:26:00,76.8,59.4,29.77,NNE,22,4.2,-999.0,55,-99.99,,,0.00,Acu-Link.com,2013-02-27 17:26:00,
2013-02-27 12:42:00,78.4,58.8,29.76,SE,135,3.2,-999.0,51,-99.99,,,0.00,Acu-Link.com,2013-02-27 17:42:00,
2013-02-27 12:57:00,79.3,59.0,29.75,SSW,202,1.7,-999.0,50,-99.99,,,0.00,Acu-Link.com,2013-02-27 17:57:00,
2013-02-27 13:12:00,78.6,57.8,29.74,SW,225,2.7,-999.0,49,-99.99,,,0.00,Acu-Link.com,2013-02-27 18:12:00,
2013-02-27 13:28:00,77.2,59.2,29.74,WSW,247,2.2,-999.0,54,-99.99,,,0.00,Acu-Link.com,2013-02-27 18:28:00,
2013-02-27 13:43:00,77.5,57.9,29.74,WNW,292,1.1,-999.0,51,-99.99,,,0.00,Acu-Link.com,2013-02-27 18:43:00,
2013-02-27 13:58:00,78.3,58.7,29.74,SSE,157,2.7,-999.0,51,-99.99,,,0.00,Acu-Link.com,2013-02-27 18:58:00,
2013-02-27 14:13:00,77.7,61.2,29.73,ESE,112,2.2,-999.0,57,-99.99,,,0.00,Acu-Link.com,2013-02-27 19:13:00,
2013-02-27 14:29:00,75.0,60.6,29.74,NNE,22,2.7,-999.0,61,-99.99,,,0.00,Acu-Link.com,2013-02-27 19:29:00,
2013-02-27 14:44:00,74.7,60.3,29.73,ESE,112,2.2,-999.0,61,-99.99,,,0.00,Acu-Link.com,2013-02-27 19:44:00,
2013-02-27 14:59:00,75.0,60.6,29.73,East,90,4.2,-999.0,61,-99.99,,,0.00,Acu-Link.com,2013-02-27 19:59:00,
2013-02-27 15:14:00,73.0,60.5,29.72,ENE,67,2.2,-999.0,65,-99.99,,,0.00,Acu-Link.com,2013-02-27 20:14:00,
2013-02-27 15:30:00,72.1,60.9,29.71,East,90,1.7,-999.0,68,-99.99,,,0.00,Acu-Link.com,2013-02-27 20:30:00,
2013-02-27 15:45:00,72.0,60.8,29.71,East,90,2.7,-999.0,68,-99.99,,,0.00,Acu-Link.com,2013-02-27 20:45:00,
2013-02-27 16:00:00,73.0,61.0,29.71,ESE,112,4.2,-999.0,66,-99.99,,,0.00,Acu-Link.com,2013-02-27 21:00:00,
2013-02-27 16:15:00,73.0,61.4,29.71,ESE,112,2.2,-999.0,67,-99.99,,,0.00,Acu-Link.com,2013-02-27 21:15:00,
2013-02-27 16:31:00,72.5,61.7,29.71,SSE,157,1.1,-999.0,69,-99.99,,,0.00,Acu-Link.com,2013-02-27 21:31:00,
2013-02-27 16:46:00,70.5,61.0,29.72,ESE,112,3.2,-999.0,72,-99.99,,,0.00,Acu-Link.com,2013-02-27 21:46:00,
2013-02-27 17:01:00,71.2,61.7,29.73,ESE,112,2.7,-999.0,72,-99.99,,,0.00,Acu-Link.com,2013-02-27 22:01:00,
2013-02-27 17:16:00,70.9,61.8,29.73,ESE,112,2.7,-999.0,73,-99.99,,,0.00,Acu-Link.com,2013-02-27 22:16:00,
2013-02-27 17:31:00,71.6,62.1,29.73,ESE,112,1.7,-999.0,72,-99.99,,,0.00,Acu-Link.com,2013-02-27 22:31:00,
2013-02-27 17:46:00,69.8,61.5,29.73,West,270,0.0,-999.0,75,-99.99,,,0.00,Acu-Link.com,2013-02-27 22:46:00,
2013-02-27 18:02:00,69.3,61.4,29.74,SE,135,1.7,-999.0,76,-99.99,,,0.00,Acu-Link.com,2013-02-27 23:02:00,
2013-02-27 18:17:00,68.2,61.4,29.74,SSW,202,0.0,-999.0,79,-99.99,,,0.00,Acu-Link.com,2013-02-27 23:17:00,
2013-02-27 18:32:00,67.1,61.4,29.73,NNE,22,3.2,-999.0,82,-99.99,,,0.00,Acu-Link.com,2013-02-27 23:32:00,
2013-02-27 18:47:00,66.6,61.3,29.73,ESE,112,0.0,-999.0,83,-99.99,,,0.00,Acu-Link.com,2013-02-27 23:47:00,
2013-02-27 19:02:00,65.7,60.7,29.73,SE,135,0.0,-999.0,84,-99.99,,,0.00,Acu-Link.com,2013-02-28 00:02:00,
2013-02-27 19:18:00,65.7,61.1,29.73,WSW,247,0.0,-999.0,85,-99.99,,,0.00,Acu-Link.com,2013-02-28 00:18:00,
2013-02-27 19:33:00,65.1,60.8,29.74,ESE,112,0.0,-999.0,86,-99.99,,,0.00,Acu-Link.com,2013-02-28 00:33:00,
2013-02-27 19:48:00,64.8,60.8,29.75,West,270,1.7,-999.0,87,-99.99,,,0.00,Acu-Link.com,2013-02-28 00:48:00,
2013-02-27 20:03:00,64.2,60.6,29.74,WSW,247,0.0,-999.0,88,-99.99,,,0.00,Acu-Link.com,2013-02-28 01:03:00,
2013-02-27 20:19:00,63.5,60.2,29.74,WNW,292,0.0,-999.0,89,-99.99,,,0.00,Acu-Link.com,2013-02-28 01:19:00,
2013-02-27 20:34:00,63.5,60.5,29.73,SE,135,2.7,-999.0,90,-99.99,,,0.00,Acu-Link.com,2013-02-28 01:34:00,
2013-02-27 20:49:00,63.5,60.5,29.74,West,270,1.7,-999.0,90,-99.99,,,0.00,Acu-Link.com,2013-02-28 01:49:00,
2013-02-27 21:04:00,63.3,60.3,29.75,WNW,292,0.0,-999.0,90,-99.99,,,0.00,Acu-Link.com,2013-02-28 02:04:00,
2013-02-27 21:20:00,63.0,60.0,29.76,WNW,292,0.0,-999.0,90,-99.99,,,0.00,Acu-Link.com,2013-02-28 02:20:00,
2013-02-27 21:35:00,63.1,58.5,29.77,SW,225,1.7,-999.0,85,-99.99,,,0.00,Acu-Link.com,2013-02-28 02:35:00,
2013-02-27 21:50:00,62.4,57.8,29.77,WSW,247,0.0,-999.0,85,-99.99,,,0.00,Acu-Link.com,2013-02-28 02:50:00,
2013-02-27 22:06:00,62.4,56.8,29.76,SW,225,0.0,-999.0,82,-99.99,,,0.00,Acu-Link.com,2013-02-28 03:06:00,
2013-02-27 22:21:00,62.2,56.0,29.78,SSE,157,1.1,-999.0,80,-99.99,,,0.00,Acu-Link.com,2013-02-28 03:21:00,
2013-02-27 22:36:00,62.2,55.3,29.77,WSW,247,1.7,-999.0,78,-99.99,,,0.00,Acu-Link.com,2013-02-28 03:36:00,
2013-02-27 22:52:00,62.2,54.2,29.77,SSW,202,3.2,-999.0,75,-99.99,,,0.00,Acu-Link.com,2013-02-28 03:52:00,
2013-02-27 23:07:00,62.2,54.2,29.77,WNW,292,2.2,-999.0,75,-99.99,,,0.00,Acu-Link.com,2013-02-28 04:07:00,
2013-02-27 23:22:00,62.1,54.1,29.77,West,270,4.7,-999.0,75,-99.99,,,0.00,Acu-Link.com,2013-02-28 04:22:00,
2013-02-27 23:37:00,61.3,52.9,29.77,WSW,247,3.2,-999.0,74,-99.99,,,0.00,Acu-Link.com,2013-02-28 04:37:00,
2013-02-27 23:52:00,60.4,52.4,29.77,SSW,202,3.7,-999.0,75,-99.99,,,0.00,Acu-Link.com,2013-02-28 04:52:00,